Time;durP1;ratioP1;P1;durP2;ratioP2;P2;SDS_P1;SDS_P2;PMS_P1;PMS_P2;Temp;Humidity;BMP_temperature;BMP_pressure;BME280_temperature;BME280_humidity;BME280_pressure;Samples;Min_cycle;Max_cycle;Signal;HPM_P1;HPM_P2
2021/08/01 00:00:51;;;;;;;4.13;2.83;;;19.90;99.90;;;;;;4141224;28;20037;-72
2021/08/01 00:02:51;;;;;;;3.60;2.75;;;19.90;99.90;;;;;;4123265;28;20043;-72
2021/08/01 00:04:52;;;;;;;3.38;3.00;;;19.80;99.90;;;;;;4130697;28;20030;-72
2021/08/01 00:06:53;;;;;;;3.83;3.40;;;19.80;99.90;;;;;;4141110;28;20037;-71
2021/08/01 00:08:54;;;;;;;3.78;3.10;;;19.80;99.90;;;;;;4144551;28;20061;-71
2021/08/01 00:10:58;;;;;;;4.13;3.50;;;19.70;99.90;;;;;;4127689;28;20384;-72
2021/08/01 00:12:59;;;;;;;3.33;2.75;;;19.70;99.90;;;;;;4143644;28;20037;-72
2021/08/01 00:15:00;;;;;;;4.03;3.33;;;19.70;99.90;;;;;;4126487;28;20121;-72
2021/08/01 00:17:01;;;;;;;5.55;3.80;;;19.70;99.90;;;;;;4143234;28;20405;-72
2021/08/01 00:19:01;;;;;;;3.38;2.80;;;19.70;99.90;;;;;;4126026;28;20069;-72
2021/08/01 00:21:04;;;;;;;5.35;3.83;;;19.60;99.90;;;;;;4126272;28;20123;-72
2021/08/01 00:23:04;;;;;;;4.05;3.08;;;19.60;99.90;;;;;;4143179;28;20036;-72
2021/08/01 00:25:05;;;;;;;3.72;2.88;;;19.50;99.90;;;;;;4127748;28;20050;-72
2021/08/01 00:27:06;;;;;;;4.65;3.20;;;19.60;99.90;;;;;;4143825;28;20563;-72
2021/08/01 00:29:06;;;;;;;3.25;2.80;;;19.60;99.90;;;;;;4125823;28;20039;-72
2021/08/01 00:31:07;;;;;;;3.95;2.97;;;19.60;99.90;;;;;;4143299;28;20112;-72
2021/08/01 00:33:08;;;;;;;2.90;2.60;;;19.60;99.90;;;;;;4143259;28;20042;-72
2021/08/01 00:35:09;;;;;;;3.72;2.65;;;19.60;99.90;;;;;;4147787;28;20063;-72
2021/08/01 00:37:09;;;;;;;4.28;3.10;;;19.60;99.90;;;;;;4143341;28;20116;-72
2021/08/01 00:39:12;;;;;;;4.07;3.30;;;19.70;99.90;;;;;;4143396;28;20061;-72
2021/08/01 00:41:12;;;;;;;5.07;3.75;;;19.60;99.90;;;;;;4143468;28;20042;-72
2021/08/01 00:43:13;;;;;;;7.75;3.55;;;19.70;99.90;;;;;;4142792;28;20244;-72
2021/08/01 00:45:14;;;;;;;4.20;3.10;;;19.60;99.90;;;;;;4125958;28;20030;-72
2021/08/01 00:47:14;;;;;;;2.92;2.63;;;19.70;99.90;;;;;;4142714;28;20038;-72
2021/08/01 00:49:15;;;;;;;3.55;2.90;;;19.70;99.90;;;;;;4125423;28;20360;-72
2021/08/01 00:51:16;;;;;;;4.95;3.38;;;19.60;99.90;;;;;;4144961;28;20045;-72
2021/08/01 00:53:17;;;;;;;5.15;3.55;;;19.60;99.90;;;;;;4132936;28;20449;-71
2021/08/01 00:55:18;;;;;;;5.05;3.00;;;19.60;99.90;;;;;;4142888;28;20045;-72
2021/08/01 00:57:18;;;;;;;3.75;3.33;;;19.60;99.90;;;;;;4143006;28;20057;-72
2021/08/01 00:59:19;;;;;;;3.40;3.10;;;19.60;99.90;;;;;;4125141;28;20503;-72
2021/08/01 01:01:27;;;;;;;5.13;3.40;;;19.60;99.90;;;;;;4125560;28;20450;-72
2021/08/01 01:04:03;;;;;;;4.07;3.38;;;19.60;99.90;;;;;;4143060;28;20371;-72
2021/08/01 01:06:25;;;;;;;5.18;3.10;;;19.60;99.90;;;;;;4115330;28;20041;-71
2021/08/01 01:08:37;;;;;;;3.50;3.20;;;19.50;99.90;;;;;;4142194;28;20045;-71
2021/08/01 01:10:44;;;;;;;3.78;3.45;;;19.50;99.90;;;;;;4142264;28;20273;-71
2021/08/01 01:12:48;;;;;;;4.70;3.10;;;19.50;99.90;;;;;;4140575;28;20080;-71
2021/08/01 01:14:53;;;;;;;3.75;3.10;;;19.50;99.90;;;;;;4125019;28;20186;-71
2021/08/01 01:17:03;;;;;;;4.00;3.08;;;19.50;99.90;;;;;;4124627;28;20034;-71
2021/08/01 01:19:04;;;;;;;2.95;2.63;;;19.50;99.90;;;;;;4108934;28;20101;-71
2021/08/01 01:21:26;;;;;;;5.32;3.45;;;19.50;99.90;;;;;;4136918;28;20038;-71
2021/08/01 01:23:36;;;;;;;3.17;2.88;;;19.50;99.90;;;;;;4141655;28;20084;-71
2021/08/01 01:26:00;;;;;;;3.08;2.75;;;19.50;99.90;;;;;;4147792;28;20489;-72
2021/08/01 01:28:15;;;;;;;3.70;3.00;;;19.50;99.90;;;;;;4139397;28;20030;-71
2021/08/01 01:30:16;;;;;;;4.38;3.15;;;19.50;99.90;;;;;;4144469;28;20034;-72
2021/08/01 01:32:22;;;;;;;3.28;2.97;;;19.40;99.90;;;;;;4143330;28;20118;-72
2021/08/01 01:34:32;;;;;;;4.75;3.63;;;19.40;99.90;;;;;;4124769;28;20043;-72
2021/08/01 01:36:35;;;;;;;4.03;3.30;;;19.40;99.90;;;;;;4124902;28;20113;-72
2021/08/01 01:38:36;;;;;;;5.28;3.42;;;19.40;99.90;;;;;;4124429;28;20410;-72
2021/08/01 01:40:37;;;;;;;4.45;3.30;;;19.40;99.90;;;;;;4141760;28;20034;-72
2021/08/01 01:42:39;;;;;;;4.55;3.65;;;19.40;99.90;;;;;;4142035;28;20072;-72
2021/08/01 01:44:43;;;;;;;3.80;3.30;;;19.40;99.90;;;;;;4142440;28;20409;-72
2021/08/01 01:46:45;;;;;;;5.25;3.35;;;19.40;99.90;;;;;;4126388;28;20105;-72
2021/08/01 01:48:47;;;;;;;5.15;3.55;;;19.30;99.90;;;;;;4141768;28;20056;-72
2021/08/01 01:50:49;;;;;;;4.97;3.47;;;19.30;99.90;;;;;;4124638;28;20039;-72
2021/08/01 01:52:51;;;;;;;4.28;3.40;;;19.30;99.90;;;;;;4141858;28;20030;-72
2021/08/01 01:54:53;;;;;;;4.30;3.53;;;19.30;99.90;;;;;;4130735;28;20042;-72
2021/08/01 01:56:54;;;;;;;5.10;3.65;;;19.30;99.90;;;;;;4146989;28;20050;-72
2021/08/01 01:58:55;;;;;;;4.43;4.03;;;19.30;99.90;;;;;;4142222;28;20034;-72
2021/08/01 02:00:56;;;;;;;5.45;3.88;;;19.20;99.90;;;;;;4142392;28;20048;-72
2021/08/01 02:02:57;;;;;;;6.20;4.18;;;19.10;99.90;;;;;;4142024;28;20057;-72
2021/08/01 02:04:57;;;;;;;5.00;3.65;;;19.10;99.90;;;;;;4142478;28;20038;-72
2021/08/01 02:06:59;;;;;;;5.05;3.63;;;19.00;99.90;;;;;;4141649;28;20038;-72
2021/08/01 02:09:27;;;;;;;4.77;3.83;;;19.00;99.90;;;;;;4141646;28;20057;-71
2021/08/01 02:11:36;;;;;;;6.15;3.72;;;19.00;99.90;;;;;;4140941;28;20346;-71
2021/08/01 02:13:45;;;;;;;5.15;4.15;;;18.90;99.90;;;;;;4118459;28;20074;-72
2021/08/01 02:15:50;;;;;;;5.45;3.75;;;18.90;99.90;;;;;;4141581;28;20096;-72
2021/08/01 02:17:53;;;;;;;5.93;4.15;;;18.90;99.90;;;;;;4107073;28;20398;-72
2021/08/01 02:19:56;;;;;;;4.80;4.13;;;18.90;99.90;;;;;;4141726;28;20064;-71
2021/08/01 02:21:56;;;;;;;5.32;4.18;;;18.90;99.90;;;;;;4123633;28;20042;-72
2021/08/01 02:24:00;;;;;;;6.25;4.03;;;18.80;99.90;;;;;;4124612;28;20378;-72
2021/08/01 02:26:02;;;;;;;6.20;4.72;;;18.80;99.90;;;;;;4124769;28;20042;-72
2021/08/01 02:28:07;;;;;;;7.00;4.53;;;18.80;99.90;;;;;;4143162;28;20165;-72
2021/08/01 02:30:08;;;;;;;7.60;4.40;;;18.70;99.90;;;;;;4141988;28;20556;-72
2021/08/01 02:32:09;;;;;;;6.28;4.35;;;18.70;99.90;;;;;;4149768;28;20148;-71
2021/08/01 02:34:11;;;;;;;5.45;4.35;;;18.70;99.90;;;;;;4142078;28;20045;-72
2021/08/01 02:36:13;;;;;;;5.75;4.47;;;18.50;99.90;;;;;;4141927;28;20048;-72
2021/08/01 02:38:15;;;;;;;7.07;4.03;;;18.50;99.90;;;;;;4141337;28;20052;-71
2021/08/01 02:40:15;;;;;;;6.65;4.60;;;18.50;99.90;;;;;;4107699;28;20041;-71
2021/08/01 02:42:17;;;;;;;9.20;5.07;;;18.50;99.90;;;;;;4142304;28;20613;-72
2021/08/01 02:44:22;;;;;;;6.47;4.97;;;18.50;99.90;;;;;;4123648;28;20041;-72
2021/08/01 02:46:27;;;;;;;6.07;4.47;;;18.40;99.90;;;;;;4122957;28;20412;-72
2021/08/01 02:48:32;;;;;;;5.22;4.22;;;18.50;99.90;;;;;;4124247;28;20042;-72
2021/08/01 02:50:37;;;;;;;7.18;4.60;;;18.40;99.90;;;;;;4123335;28;20118;-72
2021/08/01 02:52:59;;;;;;;6.03;4.75;;;18.40;99.90;;;;;;4139380;28;20037;-72
2021/08/01 02:55:03;;;;;;;6.65;4.50;;;18.40;99.90;;;;;;4137797;28;20030;-72
2021/08/01 02:57:05;;;;;;;6.10;5.05;;;18.40;99.90;;;;;;4141185;28;20038;-72
2021/08/01 02:59:07;;;;;;;6.13;4.75;;;18.40;99.90;;;;;;4123944;28;20031;-72
2021/08/01 03:01:09;;;;;;;5.50;4.90;;;18.40;99.90;;;;;;4140594;28;20117;-72
2021/08/01 03:03:10;;;;;;;6.67;5.07;;;18.40;99.90;;;;;;4136770;28;20064;-72
2021/08/01 03:05:13;;;;;;;4.68;4.00;;;18.40;99.90;;;;;;4135672;28;20040;-72
2021/08/01 03:07:15;;;;;;;6.30;4.38;;;18.40;99.90;;;;;;4143306;28;20079;-72
2021/08/01 03:09:15;;;;;;;5.63;5.03;;;18.40;99.90;;;;;;4141385;28;20042;-71
2021/08/01 03:11:22;;;;;;;6.75;4.85;;;18.40;99.90;;;;;;4141244;28;20382;-71
2021/08/01 03:13:23;;;;;;;6.05;5.00;;;18.40;99.90;;;;;;4130946;28;20517;-72
2021/08/01 03:15:24;;;;;;;6.60;5.35;;;18.40;99.90;;;;;;4141381;28;20030;-71
2021/08/01 03:17:24;;;;;;;6.45;5.22;;;18.30;99.90;;;;;;4123682;28;20038;-71
2021/08/01 03:19:25;;;;;;;9.90;5.78;;;18.30;99.90;;;;;;4140676;28;20489;-72
2021/08/01 03:21:25;;;;;;;7.03;4.97;;;18.30;99.90;;;;;;4123634;28;20038;-72
2021/08/01 03:23:26;;;;;;;5.10;4.45;;;18.30;99.90;;;;;;4140497;28;20042;-72
2021/08/01 03:25:27;;;;;;;5.85;4.43;;;18.20;99.90;;;;;;4140933;28;20397;-72
2021/08/01 03:27:27;;;;;;;6.55;4.70;;;18.20;99.90;;;;;;4141173;28;20041;-71
2021/08/01 03:29:28;;;;;;;4.82;4.32;;;18.20;99.90;;;;;;4130673;28;20125;-71
2021/08/01 03:31:29;;;;;;;6.15;4.72;;;18.30;99.90;;;;;;4123280;28;20102;-71
2021/08/01 03:33:29;;;;;;;7.15;5.13;;;18.30;99.90;;;;;;4140958;28;20088;-71
2021/08/01 03:35:30;;;;;;;5.00;4.18;;;18.30;99.90;;;;;;4123493;28;20495;-71
2021/08/01 03:37:30;;;;;;;7.22;5.25;;;18.30;99.90;;;;;;4123368;28;20636;-72
2021/08/01 03:39:34;;;;;;;5.43;4.88;;;18.30;99.90;;;;;;4140747;28;20125;-72
2021/08/01 03:41:35;;;;;;;7.70;4.65;;;18.40;99.90;;;;;;4140521;28;20033;-71
2021/08/01 03:43:35;;;;;;;5.75;4.82;;;18.40;99.90;;;;;;4147868;28;20042;-71
2021/08/01 03:45:36;;;;;;;7.78;5.25;;;18.30;99.90;;;;;;4126698;28;20050;-71
2021/08/01 03:47:38;;;;;;;7.10;4.88;;;18.30;99.90;;;;;;4142954;28;20128;-71
2021/08/01 03:49:38;;;;;;;6.53;4.88;;;18.30;99.90;;;;;;4144001;28;20080;-71
2021/08/01 03:51:39;;;;;;;6.00;4.88;;;18.30;99.90;;;;;;4144066;28;20490;-72
2021/08/01 03:53:39;;;;;;;4.13;3.70;;;18.20;99.90;;;;;;4143623;28;20041;-71
2021/08/01 03:55:40;;;;;;;5.85;4.63;;;18.30;99.90;;;;;;4144171;28;20049;-71
2021/08/01 03:57:40;;;;;;;6.10;5.00;;;18.20;99.90;;;;;;4140996;28;20112;-71
2021/08/01 03:59:41;;;;;;;6.28;4.68;;;18.20;99.90;;;;;;4147814;28;20076;-71
2021/08/01 04:01:42;;;;;;;6.38;5.05;;;18.10;99.90;;;;;;4140585;28;20041;-72
2021/08/01 04:03:43;;;;;;;8.15;5.00;;;18.10;99.90;;;;;;4138628;28;20042;-72
2021/08/01 04:05:43;;;;;;;6.10;4.85;;;18.20;99.90;;;;;;4144198;28;20068;-72
2021/08/01 04:07:44;;;;;;;7.05;4.95;;;18.10;99.90;;;;;;4143470;28;20410;-72
2021/08/01 04:09:44;;;;;;;6.32;4.70;;;18.10;99.90;;;;;;4143352;28;20375;-71
2021/08/01 04:11:45;;;;;;;8.05;5.70;;;18.10;99.90;;;;;;4125919;28;20048;-72
2021/08/01 04:13:45;;;;;;;6.93;4.47;;;18.10;99.90;;;;;;4142280;28;20034;-72
2021/08/01 04:15:46;;;;;;;5.78;4.80;;;18.10;99.90;;;;;;4143429;28;20038;-71
2021/08/01 04:17:47;;;;;;;8.98;5.70;;;18.10;99.90;;;;;;4143601;28;20030;-71
2021/08/01 04:19:47;;;;;;;5.57;4.38;;;18.10;99.90;;;;;;4143766;28;20046;-72
2021/08/01 04:21:48;;;;;;;7.63;5.13;;;18.00;99.90;;;;;;4143549;28;20486;-72
2021/08/01 04:23:48;;;;;;;6.13;4.65;;;18.00;99.90;;;;;;4125762;28;20491;-72
2021/08/01 04:25:49;;;;;;;5.22;4.70;;;18.00;99.90;;;;;;4143408;28;20049;-71
2021/08/01 04:27:49;;;;;;;5.65;4.85;;;18.00;99.90;;;;;;4143314;28;20390;-71
2021/08/01 04:29:50;;;;;;;6.53;4.72;;;17.90;99.90;;;;;;4143520;28;20064;-72
2021/08/01 04:31:51;;;;;;;4.95;4.30;;;17.90;99.90;;;;;;4142289;28;20049;-72
2021/08/01 04:33:51;;;;;;;5.95;4.80;;;17.90;99.90;;;;;;4143314;28;20038;-71
2021/08/01 04:35:52;;;;;;;7.10;4.28;;;17.90;99.90;;;;;;4143393;28;20034;-71
2021/08/01 04:37:52;;;;;;;5.20;4.22;;;17.80;99.90;;;;;;4142848;28;20038;-71
2021/08/01 04:39:53;;;;;;;6.30;4.32;;;17.80;99.90;;;;;;4115626;28;20549;-71
2021/08/01 04:41:54;;;;;;;7.40;5.35;;;17.90;99.90;;;;;;4125388;28;20399;-71
2021/08/01 04:43:55;;;;;;;6.07;5.10;;;17.90;99.90;;;;;;4127154;28;20765;-72
2021/08/01 04:45:56;;;;;;;8.80;5.45;;;17.80;99.90;;;;;;4143308;28;20034;-72
2021/08/01 04:47:56;;;;;;;5.53;4.47;;;17.80;99.90;;;;;;4143295;28;20072;-72
2021/08/01 04:49:57;;;;;;;7.80;5.38;;;17.80;99.90;;;;;;4143134;28;20037;-72
2021/08/01 04:51:58;;;;;;;5.38;4.80;;;17.80;99.90;;;;;;4143649;28;20387;-72
2021/08/01 04:53:58;;;;;;;5.45;4.80;;;17.80;99.90;;;;;;4142032;28;20073;-71
2021/08/01 04:55:59;;;;;;;6.13;4.55;;;17.80;99.90;;;;;;4125475;28;20046;-71
2021/08/01 04:58:02;;;;;;;6.38;4.50;;;17.80;99.90;;;;;;4143715;28;20307;-71
2021/08/01 05:00:04;;;;;;;5.70;4.78;;;17.80;99.90;;;;;;4154156;28;20041;-71
2021/08/01 05:02:05;;;;;;;7.10;5.03;;;17.70;99.90;;;;;;4109606;28;20046;-71
2021/08/01 05:04:06;;;;;;;6.45;4.85;;;17.70;99.90;;;;;;4143524;28;20034;-71
2021/08/01 05:06:07;;;;;;;7.28;5.07;;;17.70;99.90;;;;;;4143227;28;20077;-71
2021/08/01 05:08:07;;;;;;;7.35;5.20;;;17.70;99.90;;;;;;4142805;28;20034;-71
2021/08/01 05:10:08;;;;;;;7.25;4.40;;;17.70;99.90;;;;;;4130901;28;20037;-71
2021/08/01 05:12:09;;;;;;;6.15;4.60;;;17.70;99.90;;;;;;4142543;28;20026;-71
2021/08/01 05:14:09;;;;;;;7.57;4.88;;;17.70;99.90;;;;;;4129583;28;20041;-71
2021/08/01 05:16:16;;;;;;;7.68;5.22;;;17.60;99.90;;;;;;4144590;28;20038;-72
2021/08/01 05:18:17;;;;;;;6.70;5.00;;;17.60;99.90;;;;;;4125886;28;20030;-71
2021/08/01 05:20:18;;;;;;;5.60;4.47;;;17.60;99.90;;;;;;4155715;28;20480;-72
2021/08/01 05:22:18;;;;;;;10.50;5.15;;;17.60;99.90;;;;;;4144691;28;20042;-72
2021/08/01 05:24:19;;;;;;;5.82;4.10;;;17.60;99.90;;;;;;4114969;28;20669;-72
2021/08/01 05:26:19;;;;;;;8.40;5.53;;;17.60;99.90;;;;;;4131727;28;20562;-71
2021/08/01 05:28:20;;;;;;;7.32;4.97;;;17.60;99.90;;;;;;4129560;28;20285;-72
2021/08/01 05:30:21;;;;;;;6.35;5.05;;;17.60;99.90;;;;;;4123097;28;20475;-71
2021/08/01 05:32:21;;;;;;;9.52;5.00;;;17.70;99.90;;;;;;4126996;28;25441;-71
2021/08/01 05:34:23;;;;;;;7.65;5.28;;;17.60;99.90;;;;;;4119785;28;20573;-72
2021/08/01 05:36:23;;;;;;;9.52;5.35;;;17.60;99.90;;;;;;4127023;28;20034;-71
2021/08/01 05:38:24;;;;;;;9.52;5.47;;;17.60;99.90;;;;;;4142265;28;20096;-71
2021/08/01 05:40:24;;;;;;;7.45;5.25;;;17.60;99.90;;;;;;4110609;28;20041;-71
2021/08/01 05:42:25;;;;;;;9.55;5.72;;;17.60;99.90;;;;;;4125809;28;20046;-71
2021/08/01 05:44:25;;;;;;;11.95;4.97;;;17.50;99.90;;;;;;4130610;28;20558;-72
2021/08/01 05:46:26;;;;;;;6.88;5.18;;;17.60;99.90;;;;;;4112829;28;20042;-71
2021/08/01 05:48:26;;;;;;;12.15;5.47;;;17.60;99.90;;;;;;4108724;28;20122;-72
2021/08/01 05:50:27;;;;;;;7.93;5.25;;;17.60;99.90;;;;;;4129050;28;20038;-72
2021/08/01 05:52:27;;;;;;;10.35;5.88;;;17.60;99.90;;;;;;4126549;28;20042;-72
2021/08/01 05:54:28;;;;;;;7.43;5.30;;;17.60;99.90;;;;;;4122815;28;20188;-71
2021/08/01 05:56:29;;;;;;;8.30;4.68;;;17.60;99.90;;;;;;4135244;28;20096;-71
2021/08/01 05:58:29;;;;;;;10.38;5.53;;;17.60;99.90;;;;;;4109617;28;20456;-71
2021/08/01 06:00:30;;;;;;;9.43;6.32;;;17.70;99.90;;;;;;4125969;28;20045;-71
2021/08/01 06:02:30;;;;;;;7.43;5.10;;;17.70;99.90;;;;;;4113150;28;20511;-71
2021/08/01 06:04:31;;;;;;;6.45;4.55;;;17.70;99.90;;;;;;4135868;28;20038;-71
2021/08/01 06:06:32;;;;;;;9.55;5.20;;;17.70;99.90;;;;;;4139119;28;20044;-72
2021/08/01 06:08:32;;;;;;;9.48;5.72;;;17.80;99.90;;;;;;4134579;28;20034;-72
2021/08/01 06:10:33;;;;;;;9.55;5.40;;;17.80;99.90;;;;;;4131710;28;20507;-72
2021/08/01 06:12:33;;;;;;;10.68;5.00;;;17.80;99.90;;;;;;4131296;28;20026;-72
2021/08/01 06:14:34;;;;;;;10.77;6.70;;;17.90;99.90;;;;;;4132448;28;20034;-72
2021/08/01 06:16:35;;;;;;;13.57;6.57;;;17.80;99.90;;;;;;4109567;28;20118;-72
2021/08/01 06:18:37;;;;;;;14.82;6.80;;;17.90;99.90;;;;;;4133159;28;20372;-72
2021/08/01 06:20:37;;;;;;;8.20;5.95;;;17.90;99.90;;;;;;4109356;28;20038;-72
2021/08/01 06:22:38;;;;;;;11.18;6.40;;;18.00;99.90;;;;;;4133487;28;20034;-72
2021/08/01 06:24:38;;;;;;;9.80;5.68;;;18.20;99.90;;;;;;4127857;28;20037;-72
2021/08/01 06:26:39;;;;;;;11.60;6.35;;;18.50;99.90;;;;;;4109084;28;20023;-72
2021/08/01 06:28:40;;;;;;;11.77;5.25;;;18.80;99.90;;;;;;4134118;28;20030;-72
2021/08/01 06:30:41;;;;;;;11.77;6.07;;;19.00;99.90;;;;;;4120752;28;20399;-72
2021/08/01 06:32:41;;;;;;;10.70;5.13;;;19.10;99.90;;;;;;4141136;28;20030;-72
2021/08/01 06:34:42;;;;;;;8.18;4.70;;;19.20;99.90;;;;;;4130977;28;20054;-72
2021/08/01 06:36:42;;;;;;;8.75;5.40;;;19.30;99.90;;;;;;4126220;28;20027;-72
2021/08/01 06:38:45;;;;;;;7.80;5.45;;;19.50;99.90;;;;;;4128999;28;20042;-72
2021/08/01 06:40:45;;;;;;;9.43;5.10;;;19.60;99.90;;;;;;4132978;28;20042;-72
2021/08/01 06:42:46;;;;;;;7.53;4.57;;;19.60;99.90;;;;;;4132643;28;20041;-72
2021/08/01 06:44:47;;;;;;;10.27;4.93;;;19.60;99.90;;;;;;4128158;28;20372;-72
2021/08/01 06:46:47;;;;;;;8.23;4.63;;;19.50;99.90;;;;;;4115500;28;20094;-72
2021/08/01 06:48:48;;;;;;;7.78;4.65;;;19.50;99.90;;;;;;4125160;28;20034;-72
2021/08/01 06:50:49;;;;;;;9.63;4.45;;;19.50;99.90;;;;;;4130533;28;20058;-72
2021/08/01 06:52:50;;;;;;;9.32;4.85;;;19.50;99.90;;;;;;4125028;28;20031;-72
2021/08/01 06:54:50;;;;;;;7.38;4.63;;;19.40;99.90;;;;;;4113777;28;20471;-72
2021/08/01 06:56:51;;;;;;;8.43;4.18;;;19.40;99.90;;;;;;4125336;28;20038;-72
2021/08/01 06:58:51;;;;;;;7.53;4.38;;;19.40;99.90;;;;;;4125190;28;20028;-72
2021/08/01 07:00:54;;;;;;;11.02;5.53;;;19.30;99.90;;;;;;4133006;28;20030;-72
2021/08/01 07:02:56;;;;;;;8.48;4.97;;;19.20;99.90;;;;;;4126024;28;20085;-72
2021/08/01 07:05:00;;;;;;;7.93;5.25;;;19.20;99.90;;;;;;4125739;28;20101;-73
2021/08/01 07:07:00;;;;;;;10.57;5.75;;;19.20;99.90;;;;;;4133883;28;20077;-72
2021/08/01 07:09:01;;;;;;;9.60;5.00;;;19.20;99.90;;;;;;4109769;28;20319;-72
2021/08/01 07:11:01;;;;;;;11.00;5.70;;;19.00;99.90;;;;;;4112134;28;20055;-72
2021/08/01 07:13:07;;;;;;;9.05;5.43;;;18.90;99.90;;;;;;4129253;28;20417;-73
2021/08/01 07:15:12;;;;;;;8.82;5.85;;;19.00;99.90;;;;;;4136535;28;20120;-72
2021/08/01 07:17:13;;;;;;;8.88;5.50;;;18.90;99.90;;;;;;4131840;28;20048;-72
2021/08/01 07:19:13;;;;;;;10.35;5.75;;;18.90;99.90;;;;;;4135561;28;20037;-72
2021/08/01 07:21:14;;;;;;;9.88;5.75;;;18.90;99.90;;;;;;4107792;28;20023;-72
2021/08/01 07:23:14;;;;;;;10.73;6.65;;;18.90;99.90;;;;;;4125682;28;20093;-72
2021/08/01 07:25:15;;;;;;;18.20;7.70;;;18.80;99.90;;;;;;4130954;28;20371;-72
2021/08/01 07:27:16;;;;;;;11.32;5.78;;;18.80;99.90;;;;;;4099319;28;20031;-72
2021/08/01 07:29:17;;;;;;;13.35;6.75;;;18.70;99.90;;;;;;4130922;28;20030;-72
2021/08/01 07:31:17;;;;;;;11.43;6.18;;;18.60;99.90;;;;;;4129438;28;20057;-72
2021/08/01 07:33:19;;;;;;;12.10;5.95;;;18.60;99.90;;;;;;4125137;28;20129;-72
2021/08/01 07:35:20;;;;;;;13.35;6.43;;;18.50;99.90;;;;;;4133598;28;20045;-72
2021/08/01 07:37:21;;;;;;;12.50;6.60;;;18.40;99.90;;;;;;4107780;28;20059;-72
2021/08/01 07:39:21;;;;;;;14.27;6.53;;;18.40;99.90;;;;;;4124633;28;20553;-72
2021/08/01 07:41:22;;;;;;;8.73;5.25;;;18.40;99.90;;;;;;4135636;28;20088;-72
2021/08/01 07:43:23;;;;;;;9.07;5.15;;;18.30;99.90;;;;;;4114164;28;20343;-72
2021/08/01 07:45:31;;;;;;;8.90;5.25;;;18.30;99.90;;;;;;4124867;28;21032;-72
2021/08/01 07:47:35;;;;;;;10.38;5.80;;;18.30;99.90;;;;;;4134435;28;20157;-72
2021/08/01 07:49:35;;;;;;;9.10;5.05;;;18.30;99.90;;;;;;4115292;28;20030;-72
2021/08/01 07:51:36;;;;;;;7.50;4.40;;;18.20;99.90;;;;;;4136992;28;20041;-72
2021/08/01 07:53:36;;;;;;;9.13;4.85;;;18.20;99.90;;;;;;4127478;28;20122;-72
2021/08/01 07:55:37;;;;;;;12.27;5.15;;;18.30;99.90;;;;;;4133655;28;20041;-72
2021/08/01 07:57:38;;;;;;;6.90;3.67;;;18.20;99.90;;;;;;4107881;28;20050;-72
2021/08/01 07:59:38;;;;;;;9.63;4.20;;;18.20;99.90;;;;;;4125536;28;20034;-72
2021/08/01 08:01:39;;;;;;;8.95;4.78;;;18.20;99.90;;;;;;4130360;28;20038;-72
2021/08/01 08:03:42;;;;;;;8.38;4.43;;;18.10;99.90;;;;;;4135519;28;20108;-72
2021/08/01 08:05:42;;;;;;;9.07;4.57;;;18.20;99.90;;;;;;4132061;28;20125;-73
2021/08/01 08:07:43;;;;;;;10.88;4.22;;;18.10;99.90;;;;;;4128031;28;20034;-72
2021/08/01 08:09:44;;;;;;;11.70;4.60;;;18.20;99.90;;;;;;4115865;28;20035;-72
2021/08/01 08:11:44;;;;;;;8.68;4.05;;;18.20;99.90;;;;;;4129331;28;20339;-72
2021/08/01 08:13:45;;;;;;;10.43;3.80;;;18.20;99.90;;;;;;4107312;28;20027;-72
2021/08/01 08:15:46;;;;;;;13.68;5.30;;;18.30;99.90;;;;;;4107914;28;20038;-72
2021/08/01 08:17:46;;;;;;;9.57;4.68;;;18.30;99.90;;;;;;4116071;28;20043;-72
2021/08/01 08:19:47;;;;;;;7.18;3.95;;;18.30;99.90;;;;;;4110471;28;20035;-72
2021/08/01 08:21:47;;;;;;;8.75;3.65;;;18.40;99.90;;;;;;4136353;28;20038;-72
2021/08/01 08:23:48;;;;;;;8.63;3.97;;;18.40;99.90;;;;;;4126154;28;20039;-72
2021/08/01 08:25:49;;;;;;;8.13;3.85;;;18.40;99.90;;;;;;4124537;28;20092;-72
2021/08/01 08:27:50;;;;;;;10.82;4.40;;;18.50;99.90;;;;;;4125079;28;20693;-72
2021/08/01 08:29:50;;;;;;;10.13;4.50;;;18.50;99.90;;;;;;4092530;28;20038;-72
2021/08/01 08:31:53;;;;;;;8.65;4.28;;;18.60;99.90;;;;;;4116930;28;20096;-72
2021/08/01 08:33:53;;;;;;;8.32;4.28;;;18.60;99.90;;;;;;4128188;28;20057;-72
2021/08/01 08:35:54;;;;;;;8.95;4.13;;;18.60;99.90;;;;;;4110419;28;20168;-72
2021/08/01 08:37:54;;;;;;;8.20;4.10;;;18.60;99.90;;;;;;4139185;28;20050;-72
2021/08/01 08:39:55;;;;;;;10.90;4.40;;;18.60;99.90;;;;;;4116146;28;20117;-72
2021/08/01 08:41:58;;;;;;;7.20;3.53;;;18.70;99.90;;;;;;4117887;28;20057;-72
2021/08/01 08:43:59;;;;;;;5.78;3.25;;;18.70;99.90;;;;;;4134713;28;20038;-72
2021/08/01 08:46:00;;;;;;;6.50;3.80;;;18.70;99.90;;;;;;4111679;28;20041;-72
2021/08/01 08:48:01;;;;;;;8.75;4.03;;;18.80;99.90;;;;;;4113859;28;20513;-72
2021/08/01 08:50:02;;;;;;;8.32;4.22;;;18.80;99.90;;;;;;4128227;28;20058;-72
2021/08/01 08:52:06;;;;;;;9.98;4.50;;;18.80;99.90;;;;;;4137337;28;20331;-72
2021/08/01 08:54:12;;;;;;;8.57;3.80;;;18.80;99.90;;;;;;4127864;28;20502;-72
2021/08/01 08:56:15;;;;;;;6.80;3.30;;;18.70;99.90;;;;;;4135429;28;20389;-72
2021/08/01 08:58:20;;;;;;;8.13;3.63;;;18.80;99.90;;;;;;4132214;28;20053;-72
2021/08/01 09:00:21;;;;;;;8.13;3.88;;;18.90;99.90;;;;;;4135201;28;20071;-72
2021/08/01 09:02:22;;;;;;;8.13;3.80;;;18.80;99.90;;;;;;4122492;28;20034;-72
2021/08/01 09:04:23;;;;;;;6.72;3.80;;;18.80;99.90;;;;;;4110389;28;20101;-72
2021/08/01 09:06:24;;;;;;;10.90;3.88;;;18.80;99.90;;;;;;4129376;28;20191;-73
2021/08/01 09:08:26;;;;;;;10.52;3.78;;;18.80;99.90;;;;;;4138066;28;20931;-72
2021/08/01 09:10:27;;;;;;;13.82;4.10;;;18.90;99.90;;;;;;4118761;28;20056;-72
2021/08/01 09:12:27;;;;;;;8.02;3.85;;;19.00;99.90;;;;;;4137613;28;20236;-72
2021/08/01 09:14:28;;;;;;;8.27;4.40;;;18.90;99.90;;;;;;4129072;28;20398;-72
2021/08/01 09:16:48;;;;;;;7.03;3.88;;;18.90;99.90;;;;;;4127881;28;20224;-72
2021/08/01 09:18:49;;;;;;;8.27;4.32;;;18.90;99.90;;;;;;4112999;28;20454;-72
2021/08/01 09:20:51;;;;;;;8.23;3.75;;;18.90;99.90;;;;;;4133158;28;20121;-72
2021/08/01 09:23:11;;;;;;;12.37;4.43;;;18.90;99.90;;;;;;4127666;28;20026;-72
2021/08/01 09:25:20;;;;;;;7.15;3.53;;;19.00;99.90;;;;;;4131238;28;20273;-72
2021/08/01 09:27:34;;;;;;;7.90;3.80;;;19.00;99.90;;;;;;4127696;28;20073;-72
2021/08/01 09:29:48;;;;;;;8.07;3.40;;;19.00;99.90;;;;;;4117580;28;20069;-72
2021/08/01 09:31:58;;;;;;;8.07;4.05;;;19.00;99.90;;;;;;4126563;28;20042;-72
2021/08/01 09:33:59;;;;;;;5.80;3.03;;;19.00;99.90;;;;;;4113255;28;20035;-72
2021/08/01 09:36:10;;;;;;;8.25;4.35;;;19.10;99.90;;;;;;4126598;28;20034;-72
2021/08/01 09:38:10;;;;;;;12.80;4.30;;;19.10;99.90;;;;;;4117020;28;20049;-72
2021/08/01 09:40:12;;;;;;;5.72;3.83;;;19.00;99.90;;;;;;4135448;28;20035;-72
2021/08/01 09:42:13;;;;;;;6.97;3.67;;;19.10;99.90;;;;;;4125894;28;20122;-72
2021/08/01 09:44:19;;;;;;;6.97;4.22;;;19.10;99.90;;;;;;4109535;28;20031;-72
2021/08/01 09:46:20;;;;;;;7.88;4.72;;;19.10;99.90;;;;;;4134981;28;20038;-72
2021/08/01 09:48:21;;;;;;;10.10;4.78;;;19.00;99.90;;;;;;4134471;28;20108;-72
2021/08/01 09:50:22;;;;;;;7.47;4.00;;;19.00;99.90;;;;;;4136511;28;20575;-72
2021/08/01 09:52:23;;;;;;;7.78;3.80;;;18.90;99.90;;;;;;4128167;28;20039;-72
2021/08/01 09:54:26;;;;;;;6.80;4.18;;;18.90;99.90;;;;;;4109638;28;20592;-72
2021/08/01 09:56:26;;;;;;;6.53;3.80;;;18.90;99.90;;;;;;4131814;28;20438;-72
2021/08/01 09:58:36;;;;;;;6.40;4.15;;;18.90;99.90;;;;;;4110838;28;20101;-72
2021/08/01 10:00:57;;;;;;;7.70;4.47;;;19.00;99.90;;;;;;4108920;28;20031;-72
2021/08/01 10:03:02;;;;;;;8.05;4.20;;;18.90;99.90;;;;;;4125524;28;20049;-72
2021/08/01 10:05:20;;;;;;;6.82;4.15;;;19.00;99.90;;;;;;4119963;28;20094;-72
2021/08/01 10:07:21;;;;;;;7.07;4.50;;;19.00;99.90;;;;;;4135058;28;20038;-72
2021/08/01 10:09:26;;;;;;;6.72;3.80;;;19.00;99.90;;;;;;4136438;28;20575;-72
2021/08/01 10:11:27;;;;;;;4.82;3.63;;;19.00;99.90;;;;;;4112853;28;20066;-72
2021/08/01 10:13:27;;;;;;;5.53;3.58;;;19.00;99.90;;;;;;4126152;28;20031;-72
2021/08/01 10:15:30;;;;;;;7.25;4.45;;;19.10;99.90;;;;;;4128251;28;20258;-72
2021/08/01 10:17:31;;;;;;;6.35;3.80;;;19.10;99.90;;;;;;4133361;28;20056;-72
2021/08/01 10:19:32;;;;;;;8.02;3.72;;;19.10;99.90;;;;;;4121261;28;20121;-72
2021/08/01 10:21:34;;;;;;;8.25;3.67;;;19.20;99.90;;;;;;4117120;28;20050;-72
2021/08/01 10:23:44;;;;;;;5.15;3.10;;;19.20;99.90;;;;;;4132494;28;20038;-72
2021/08/01 10:25:46;;;;;;;10.02;4.00;;;19.30;99.90;;;;;;4134164;28;20109;-72
2021/08/01 10:27:51;;;;;;;9.93;4.50;;;19.40;99.90;;;;;;4121735;28;20036;-72
2021/08/01 10:29:54;;;;;;;8.52;3.85;;;19.40;99.90;;;;;;4125999;28;20486;-72
2021/08/01 10:32:08;;;;;;;;;;;19.50;99.90;;;;;;4128100;28;20041;-72
2021/08/01 10:34:15;;;;;;;6.22;3.42;;;19.50;99.90;;;;;;4125964;28;20373;-72
2021/08/01 10:36:23;;;;;;;5.55;3.25;;;19.50;99.90;;;;;;4137601;28;20049;-72